sensor_id;sensor_type;location;lat;lon;timestamp;pressure;altitude;pressure_sealevel;temperature;humidity
21944;BME280;11136;48.778;9.126;2024-03-02T00:01:07;96149.22;;;7.75;65.26
21944;BME280;11136;48.778;9.126;2024-03-02T00:03:32;96009.53;;;6.87;64.56
21944;BME280;11136;48.778;9.126;2024-03-02T00:05:58;95957.78;;;6.52;65.14
21944;BME280;11136;48.778;9.126;2024-03-02T00:08:24;96259.38;;;8.37;64.88
21944;BME280;11136;48.778;9.126;2024-03-02T00:10:57;96334.09;;;8.85;65.32
21944;BME280;11136;48.778;9.126;2024-03-02T00:13:25;96348.50;;;8.86;65.29
21944;BME280;11136;48.778;9.126;2024-03-02T00:15:54;96217.91;;;8.00;65.41
21944;BME280;11136;48.778;9.126;2024-03-02T00:18:23;96342.81;;;8.83;65.18
21944;BME280;11136;48.778;9.126;2024-03-02T00:20:52;96082.66;;;7.20;65.44
21944;BME280;11136;48.778;9.126;2024-03-02T00:23:18;96096.66;;;7.03;65.40
21944;BME280;11136;48.778;9.126;2024-03-02T00:25:48;96335.47;;;8.78;64.58
21944;BME280;11136;48.778;9.126;2024-03-02T00:28:23;96216.50;;;7.96;64.97
21944;BME280;11136;48.778;9.126;2024-03-02T00:31:08;96153.34;;;7.64;64.97
21944;BME280;11136;48.778;9.126;2024-03-02T00:33:39;96030.00;;;6.86;64.96
21944;BME280;11136;48.778;9.126;2024-03-02T00:36:05;96344.88;;;8.78;65.30
21944;BME280;11136;48.778;9.126;2024-03-02T00:38:32;95738.25;;;4.98;65.06
21944;BME280;11136;48.778;9.126;2024-03-02T00:41:07;96337.56;;;8.73;64.97
21944;BME280;11136;48.778;9.126;2024-03-02T00:44:20;96340.47;;;8.80;64.77
21944;BME280;11136;48.778;9.126;2024-03-02T00:46:34;96335.97;;;8.83;65.41
21944;BME280;11136;48.778;9.126;2024-03-02T00:49:01;96213.47;;;7.91;64.93
21944;BME280;11136;48.778;9.126;2024-03-02T00:51:30;96331.16;;;8.79;64.62
21944;BME280;11136;48.778;9.126;2024-03-02T00:53:59;96116.13;;;7.51;64.88
21944;BME280;11136;48.778;9.126;2024-03-02T00:56:25;96306.09;;;8.73;65.13
21944;BME280;11136;48.778;9.126;2024-03-02T00:58:51;96331.06;;;8.92;64.98
21944;BME280;11136;48.778;9.126;2024-03-02T01:01:18;96337.00;;;8.92;64.70
21944;BME280;11136;48.778;9.126;2024-03-02T01:03:45;96198.88;;;8.04;64.86
21944;BME280;11136;48.778;9.126;2024-03-02T01:06:10;96333.63;;;8.92;64.97
21944;BME280;11136;48.778;9.126;2024-03-02T01:08:37;96337.34;;;8.87;64.71
21944;BME280;11136;48.778;9.126;2024-03-02T01:11:03;96336.41;;;8.88;64.76
21944;BME280;11136;48.778;9.126;2024-03-02T01:13:29;96372.91;;;8.90;64.63
21944;BME280;11136;48.778;9.126;2024-03-02T01:15:55;96337.81;;;8.93;64.80
21944;BME280;11136;48.778;9.126;2024-03-02T01:18:20;96267.28;;;8.34;64.75
21944;BME280;11136;48.778;9.126;2024-03-02T01:20:47;96309.22;;;7.73;64.38
21944;BME280;11136;48.778;9.126;2024-03-02T01:23:12;96287.41;;;8.61;64.68
21944;BME280;11136;48.778;9.126;2024-03-02T01:25:38;96291.69;;;8.61;64.02
21944;BME280;11136;48.778;9.126;2024-03-02T01:28:04;96337.34;;;8.99;64.17
21944;BME280;11136;48.778;9.126;2024-03-02T01:30:29;96243.25;;;8.37;64.30
21944;BME280;11136;48.778;9.126;2024-03-02T01:32:54;96300.84;;;8.74;64.70
21944;BME280;11136;48.778;9.126;2024-03-02T01:35:19;96229.53;;;8.15;64.12
21944;BME280;11136;48.778;9.126;2024-03-02T01:37:45;96078.38;;;7.21;64.07
21944;BME280;11136;48.778;9.126;2024-03-02T01:40:10;96059.31;;;7.26;64.04
21944;BME280;11136;48.778;9.126;2024-03-02T01:42:36;96146.78;;;7.73;64.18
21944;BME280;11136;48.778;9.126;2024-03-02T01:45:06;96198.09;;;7.68;64.42
21944;BME280;11136;48.778;9.126;2024-03-02T01:47:32;96195.66;;;7.56;64.19
21944;BME280;11136;48.778;9.126;2024-03-02T01:49:57;96336.88;;;8.82;63.71
21944;BME280;11136;48.778;9.126;2024-03-02T01:52:23;96301.31;;;8.57;63.63
21944;BME280;11136;48.778;9.126;2024-03-02T01:54:49;96175.81;;;7.48;63.86
21944;BME280;11136;48.778;9.126;2024-03-02T01:57:14;96299.34;;;8.38;63.94
21944;BME280;11136;48.778;9.126;2024-03-02T01:59:39;96106.41;;;7.21;64.18
21944;BME280;11136;48.778;9.126;2024-03-02T02:02:05;96341.38;;;8.56;63.83
21944;BME280;11136;48.778;9.126;2024-03-02T02:04:31;96159.78;;;7.35;63.68
21944;BME280;11136;48.778;9.126;2024-03-02T02:06:56;96206.09;;;7.53;64.06
21944;BME280;11136;48.778;9.126;2024-03-02T02:09:22;96109.69;;;6.64;63.79
21944;BME280;11136;48.778;9.126;2024-03-02T02:11:50;96175.75;;;7.37;64.60
21944;BME280;11136;48.778;9.126;2024-03-02T02:14:15;96136.69;;;7.01;64.40
21944;BME280;11136;48.778;9.126;2024-03-02T02:16:41;96320.97;;;8.21;64.87
21944;BME280;11136;48.778;9.126;2024-03-02T02:19:06;96290.28;;;7.99;64.18
21944;BME280;11136;48.778;9.126;2024-03-02T02:21:31;96073.34;;;6.62;64.33
21944;BME280;11136;48.778;9.126;2024-03-02T02:23:56;96216.00;;;7.45;64.65
21944;BME280;11136;48.778;9.126;2024-03-02T02:26:22;96234.66;;;7.45;63.97
21944;BME280;11136;48.778;9.126;2024-03-02T02:28:47;96309.06;;;7.98;64.56
21944;BME280;11136;48.778;9.126;2024-03-02T02:31:13;96296.97;;;7.89;64.33
21944;BME280;11136;48.778;9.126;2024-03-02T02:33:40;96249.38;;;7.42;64.22
21944;BME280;11136;48.778;9.126;2024-03-02T02:36:05;96076.38;;;6.43;64.26
21944;BME280;11136;48.778;9.126;2024-03-02T02:38:32;96172.09;;;6.93;63.97
21944;BME280;11136;48.778;9.126;2024-03-02T02:40:58;96101.75;;;6.32;63.96
21944;BME280;11136;48.778;9.126;2024-03-02T02:43:23;95995.72;;;5.96;63.79
21944;BME280;11136;48.778;9.126;2024-03-02T02:45:48;96294.28;;;7.79;64.65
21944;BME280;11136;48.778;9.126;2024-03-02T02:48:14;96120.50;;;6.55;64.08
21944;BME280;11136;48.778;9.126;2024-03-02T02:50:39;96203.97;;;7.23;64.80
21944;BME280;11136;48.778;9.126;2024-03-02T02:53:07;96273.19;;;7.53;64.87
21944;BME280;11136;48.778;9.126;2024-03-02T02:55:42;96233.47;;;7.38;64.66
21944;BME280;11136;48.778;9.126;2024-03-02T02:58:12;96136.81;;;6.52;64.58
21944;BME280;11136;48.778;9.126;2024-03-02T03:00:37;96293.31;;;7.69;64.45
21944;BME280;11136;48.778;9.126;2024-03-02T03:03:04;96293.41;;;7.67;64.67
21944;BME280;11136;48.778;9.126;2024-03-02T03:05:29;96200.41;;;7.01;64.76
21944;BME280;11136;48.778;9.126;2024-03-02T03:07:55;96139.09;;;6.68;64.20
21944;BME280;11136;48.778;9.126;2024-03-02T03:10:21;96239.13;;;7.30;64.98
21944;BME280;11136;48.778;9.126;2024-03-02T03:12:48;96120.72;;;6.52;64.38
21944;BME280;11136;48.778;9.126;2024-03-02T03:15:15;96100.88;;;6.20;64.80
21944;BME280;11136;48.778;9.126;2024-03-02T03:17:41;96300.31;;;7.54;65.13
21944;BME280;11136;48.778;9.126;2024-03-02T03:20:07;95763.56;;;3.99;65.21
21944;BME280;11136;48.778;9.126;2024-03-02T03:22:36;96221.72;;;6.64;64.76
21944;BME280;11136;48.778;9.126;2024-03-02T03:25:02;96295.34;;;7.53;65.16
21944;BME280;11136;48.778;9.126;2024-03-02T03:27:28;96292.91;;;7.51;65.53
21944;BME280;11136;48.778;9.126;2024-03-02T03:29:54;96324.44;;;7.50;65.14
21944;BME280;11136;48.778;9.126;2024-03-02T03:32:19;96304.94;;;7.49;65.00
21944;BME280;11136;48.778;9.126;2024-03-02T03:34:44;96029.09;;;5.78;64.67
21944;BME280;11136;48.778;9.126;2024-03-02T03:37:11;95918.00;;;5.06;64.81
21944;BME280;11136;48.778;9.126;2024-03-02T03:39:36;96054.53;;;5.91;64.55
21944;BME280;11136;48.778;9.126;2024-03-02T03:42:02;96175.91;;;6.64;64.28
21944;BME280;11136;48.778;9.126;2024-03-02T03:44:27;96225.78;;;6.79;65.00
21944;BME280;11136;48.778;9.126;2024-03-02T03:46:53;96039.69;;;5.72;64.42
21944;BME280;11136;48.778;9.126;2024-03-02T03:49:18;95831.41;;;3.56;64.52
21944;BME280;11136;48.778;9.126;2024-03-02T03:51:43;96347.25;;;7.28;64.87
21944;BME280;11136;48.778;9.126;2024-03-02T03:54:09;96134.50;;;6.00;64.79
21944;BME280;11136;48.778;9.126;2024-03-02T03:56:36;96309.41;;;7.22;64.75
21944;BME280;11136;48.778;9.126;2024-03-02T03:59:01;96299.44;;;7.19;64.97
21944;BME280;11136;48.778;9.126;2024-03-02T04:01:27;96244.22;;;6.83;65.12
21944;BME280;11136;48.778;9.126;2024-03-02T04:03:52;96299.66;;;7.16;65.19
21944;BME280;11136;48.778;9.126;2024-03-02T04:06:17;96256.03;;;6.84;64.66
21944;BME280;11136;48.778;9.126;2024-03-02T04:08:43;96159.50;;;6.19;64.86
21944;BME280;11136;48.778;9.126;2024-03-02T04:11:08;96203.66;;;6.43;64.70
21944;BME280;11136;48.778;9.126;2024-03-02T04:13:33;95900.16;;;4.56;64.90
21944;BME280;11136;48.778;9.126;2024-03-02T04:15:59;95952.56;;;4.83;64.65
21944;BME280;11136;48.778;9.126;2024-03-02T04:18:25;96216.25;;;6.44;64.79
21944;BME280;11136;48.778;9.126;2024-03-02T04:20:50;96291.31;;;7.01;64.78
21944;BME280;11136;48.778;9.126;2024-03-02T04:23:16;96273.16;;;6.69;64.96
21944;BME280;11136;48.778;9.126;2024-03-02T04:25:41;95979.56;;;4.84;64.80
21944;BME280;11136;48.778;9.126;2024-03-02T04:28:06;96195.41;;;6.39;65.25
21944;BME280;11136;48.778;9.126;2024-03-02T04:30:32;96221.88;;;6.37;65.42
21944;BME280;11136;48.778;9.126;2024-03-02T04:32:57;96298.38;;;6.97;65.20
21944;BME280;11136;48.778;9.126;2024-03-02T04:35:23;96335.88;;;6.95;65.51
21944;BME280;11136;48.778;9.126;2024-03-02T04:37:48;96109.38;;;4.38;65.11
21944;BME280;11136;48.778;9.126;2024-03-02T04:40:13;96015.13;;;5.09;65.10
21944;BME280;11136;48.778;9.126;2024-03-02T04:42:40;96145.28;;;5.91;65.28
21944;BME280;11136;48.778;9.126;2024-03-02T04:45:05;96209.44;;;6.32;65.18
21944;BME280;11136;48.778;9.126;2024-03-02T04:47:32;96193.91;;;5.99;65.02
21944;BME280;11136;48.778;9.126;2024-03-02T04:49:57;96205.97;;;6.33;65.19
21944;BME280;11136;48.778;9.126;2024-03-02T04:52:29;96292.50;;;6.84;65.12
21944;BME280;11136;48.778;9.126;2024-03-02T04:54:55;96041.97;;;5.26;64.89
21944;BME280;11136;48.778;9.126;2024-03-02T04:57:44;96293.63;;;6.80;65.51
21944;BME280;11136;48.778;9.126;2024-03-02T05:00:11;96356.56;;;6.78;65.12
21944;BME280;11136;48.778;9.126;2024-03-02T05:02:37;95888.75;;;3.84;64.81
21944;BME280;11136;48.778;9.126;2024-03-02T05:05:03;96311.66;;;6.77;65.44
21944;BME280;11136;48.778;9.126;2024-03-02T05:07:28;96102.22;;;5.37;65.70
21944;BME280;11136;48.778;9.126;2024-03-02T05:09:54;96097.84;;;5.26;64.98
21944;BME280;11136;48.778;9.126;2024-03-02T05:12:19;96307.69;;;6.73;65.60
21944;BME280;11136;48.778;9.126;2024-03-02T05:14:47;96194.22;;;5.94;65.59
21944;BME280;11136;48.778;9.126;2024-03-02T05:17:12;96066.56;;;5.26;65.22
21944;BME280;11136;48.778;9.126;2024-03-02T05:19:38;96104.78;;;5.49;65.19
21944;BME280;11136;48.778;9.126;2024-03-02T05:22:04;96345.19;;;6.71;65.66
21944;BME280;11136;48.778;9.126;2024-03-02T05:24:29;96118.31;;;5.50;65.21
21944;BME280;11136;48.778;9.126;2024-03-02T05:26:54;96089.69;;;5.08;65.60
21944;BME280;11136;48.778;9.126;2024-03-02T05:29:20;96259.03;;;6.39;65.41
21944;BME280;11136;48.778;9.126;2024-03-02T05:31:46;96213.44;;;6.11;64.98
21944;BME280;11136;48.778;9.126;2024-03-02T05:34:11;96104.63;;;5.13;65.24
21944;BME280;11136;48.778;9.126;2024-03-02T05:36:36;96202.47;;;5.98;65.01
21944;BME280;11136;48.778;9.126;2024-03-02T05:39:04;96308.31;;;6.64;65.24
21944;BME280;11136;48.778;9.126;2024-03-02T05:41:31;96136.50;;;5.44;64.98
21944;BME280;11136;48.778;9.126;2024-03-02T05:43:57;96311.88;;;6.61;65.69
21944;BME280;11136;48.778;9.126;2024-03-02T05:46:22;96232.78;;;6.01;65.33
21944;BME280;11136;48.778;9.126;2024-03-02T05:48:48;96174.03;;;5.66;65.78
21944;BME280;11136;48.778;9.126;2024-03-02T05:51:13;96323.81;;;6.61;65.11
21944;BME280;11136;48.778;9.126;2024-03-02T05:53:38;96290.38;;;6.27;65.59
21944;BME280;11136;48.778;9.126;2024-03-02T05:56:05;96163.34;;;5.48;65.97
21944;BME280;11136;48.778;9.126;2024-03-02T05:58:31;96330.53;;;6.62;65.83
21944;BME280;11136;48.778;9.126;2024-03-02T06:01:13;96355.06;;;6.63;66.26
21944;BME280;11136;48.778;9.126;2024-03-02T06:03:38;95999.25;;;4.68;66.39
21944;BME280;11136;48.778;9.126;2024-03-02T06:06:03;96026.44;;;4.66;65.80
21944;BME280;11136;48.778;9.126;2024-03-02T06:08:29;96032.97;;;4.95;66.44
21944;BME280;11136;48.778;9.126;2024-03-02T06:10:54;96081.59;;;5.29;66.28
21944;BME280;11136;48.778;9.126;2024-03-02T06:13:21;96240.63;;;6.23;66.03
21944;BME280;11136;48.778;9.126;2024-03-02T06:15:47;96080.38;;;5.21;65.56
21944;BME280;11136;48.778;9.126;2024-03-02T06:18:14;96267.19;;;6.19;65.68
21944;BME280;11136;48.778;9.126;2024-03-02T06:20:39;96237.16;;;6.24;65.57
21944;BME280;11136;48.778;9.126;2024-03-02T06:23:04;96134.25;;;5.39;65.72
21944;BME280;11136;48.778;9.126;2024-03-02T06:25:30;96138.03;;;5.59;65.76
21944;BME280;11136;48.778;9.126;2024-03-02T06:27:55;96324.19;;;6.80;65.61
21944;BME280;11136;48.778;9.126;2024-03-02T06:30:21;96244.78;;;6.24;66.02
21944;BME280;11136;48.778;9.126;2024-03-02T06:32:46;95980.81;;;4.51;65.80
21944;BME280;11136;48.778;9.126;2024-03-02T06:35:11;96339.28;;;6.83;65.66
21944;BME280;11136;48.778;9.126;2024-03-02T06:37:38;96356.19;;;6.84;65.77
21944;BME280;11136;48.778;9.126;2024-03-02T06:40:04;96236.44;;;6.22;65.80
21944;BME280;11136;48.778;9.126;2024-03-02T06:42:29;96158.28;;;5.73;65.89
21944;BME280;11136;48.778;9.126;2024-03-02T06:44:58;96151.13;;;5.66;66.50
21944;BME280;11136;48.778;9.126;2024-03-02T06:47:24;96188.13;;;5.97;66.40
21944;BME280;11136;48.778;9.126;2024-03-02T06:49:49;96280.22;;;6.40;66.68
21944;BME280;11136;48.778;9.126;2024-03-02T06:52:14;96219.97;;;6.15;66.77
21944;BME280;11136;48.778;9.126;2024-03-02T06:54:43;96032.50;;;5.15;67.18
21944;BME280;11136;48.778;9.126;2024-03-02T06:57:12;96211.59;;;6.38;66.94
21944;BME280;11136;48.778;9.126;2024-03-02T06:59:37;95952.56;;;4.83;66.84
21944;BME280;11136;48.778;9.126;2024-03-02T07:02:03;96258.56;;;6.84;66.79
21944;BME280;11136;48.778;9.126;2024-03-02T07:04:28;96152.69;;;6.19;66.57
21944;BME280;11136;48.778;9.126;2024-03-02T07:06:54;96344.00;;;7.50;67.17
21944;BME280;11136;48.778;9.126;2024-03-02T07:09:20;96376.13;;;7.52;67.22
21944;BME280;11136;48.778;9.126;2024-03-02T07:11:48;96384.97;;;7.59;67.01
21944;BME280;11136;48.778;9.126;2024-03-02T07:14:14;96305.09;;;7.35;66.99
21944;BME280;11136;48.778;9.126;2024-03-02T07:16:40;96235.03;;;6.80;67.68
21944;BME280;11136;48.778;9.126;2024-03-02T07:19:05;96210.06;;;6.85;66.92
21944;BME280;11136;48.778;9.126;2024-03-02T07:21:31;96167.41;;;6.39;66.62
21944;BME280;11136;48.778;9.126;2024-03-02T07:23:59;96352.41;;;7.87;66.95
21944;BME280;11136;48.778;9.126;2024-03-02T07:26:25;96238.91;;;7.10;66.68
21944;BME280;11136;48.778;9.126;2024-03-02T07:28:50;96355.59;;;8.02;66.76
21944;BME280;11136;48.778;9.126;2024-03-02T07:31:16;96344.84;;;8.09;66.32
21944;BME280;11136;48.778;9.126;2024-03-02T07:33:44;96345.53;;;8.11;66.71
21944;BME280;11136;48.778;9.126;2024-03-02T07:36:09;96341.84;;;8.15;66.90
21944;BME280;11136;48.778;9.126;2024-03-02T07:38:34;96126.25;;;6.69;66.43
21944;BME280;11136;48.778;9.126;2024-03-02T07:41:00;96364.84;;;8.15;66.92
21944;BME280;11136;48.778;9.126;2024-03-02T07:43:26;96313.19;;;7.88;66.40
21944;BME280;11136;48.778;9.126;2024-03-02T07:45:52;96354.81;;;8.12;66.43
21944;BME280;11136;48.778;9.126;2024-03-02T07:48:18;96170.97;;;6.97;66.37
21944;BME280;11136;48.778;9.126;2024-03-02T07:50:43;96115.00;;;6.61;66.49
21944;BME280;11136;48.778;9.126;2024-03-02T07:53:08;96150.06;;;6.81;66.89
21944;BME280;11136;48.778;9.126;2024-03-02T07:55:34;96188.81;;;6.97;66.21
21944;BME280;11136;48.778;9.126;2024-03-02T07:58:00;96361.88;;;8.09;66.75
21944;BME280;11136;48.778;9.126;2024-03-02T08:00:26;96366.06;;;8.10;66.39
21944;BME280;11136;48.778;9.126;2024-03-02T08:02:53;96401.91;;;8.08;66.72
21944;BME280;11136;48.778;9.126;2024-03-02T08:05:18;96365.38;;;8.08;66.24
21944;BME280;11136;48.778;9.126;2024-03-02T08:07:45;96252.69;;;7.31;66.57
21944;BME280;11136;48.778;9.126;2024-03-02T08:10:11;96186.22;;;6.86;66.78
21944;BME280;11136;48.778;9.126;2024-03-02T08:12:37;96145.56;;;6.61;66.29
21944;BME280;11136;48.778;9.126;2024-03-02T08:15:03;96369.22;;;8.13;66.93
21944;BME280;11136;48.778;9.126;2024-03-02T08:17:29;96369.81;;;8.17;66.76
21944;BME280;11136;48.778;9.126;2024-03-02T08:19:54;96236.16;;;7.36;65.93
21944;BME280;11136;48.778;9.126;2024-03-02T08:22:20;96310.25;;;8.05;66.47
21944;BME280;11136;48.778;9.126;2024-03-02T08:24:45;96287.44;;;8.15;65.81
21944;BME280;11136;48.778;9.126;2024-03-02T08:27:11;96297.31;;;8.30;66.20
21944;BME280;11136;48.778;9.126;2024-03-02T08:29:37;96155.38;;;7.37;65.69
21944;BME280;11136;48.778;9.126;2024-03-02T08:32:02;95998.13;;;6.69;64.92
21944;BME280;11136;48.778;9.126;2024-03-02T08:34:28;96394.84;;;8.93;64.93
21944;BME280;11136;48.778;9.126;2024-03-02T08:36:53;96225.31;;;8.03;64.88
21944;BME280;11136;48.778;9.126;2024-03-02T08:39:19;96195.44;;;8.39;63.69
21944;BME280;11136;48.778;9.126;2024-03-02T08:41:46;96196.47;;;8.36;63.82
21944;BME280;11136;48.778;9.126;2024-03-02T08:44:13;96084.94;;;7.92;63.80
21944;BME280;11136;48.778;9.126;2024-03-02T08:46:39;96212.44;;;8.94;62.26
21944;BME280;11136;48.778;9.126;2024-03-02T08:49:09;96381.47;;;10.00;61.82
21944;BME280;11136;48.778;9.126;2024-03-02T08:51:34;96211.06;;;9.22;61.50
21944;BME280;11136;48.778;9.126;2024-03-02T08:54:03;96108.72;;;8.80;60.95
21944;BME280;11136;48.778;9.126;2024-03-02T08:56:30;96285.00;;;9.89;59.89
21944;BME280;11136;48.778;9.126;2024-03-02T08:58:55;96157.22;;;9.35;59.36
21944;BME280;11136;48.778;9.126;2024-03-02T09:01:21;96070.44;;;8.69;59.17
21944;BME280;11136;48.778;9.126;2024-03-02T09:03:46;96233.00;;;10.09;58.85
21944;BME280;11136;48.778;9.126;2024-03-02T09:06:13;96294.31;;;10.73;58.73
21944;BME280;11136;48.778;9.126;2024-03-02T09:08:39;96268.16;;;10.49;58.12
21944;BME280;11136;48.778;9.126;2024-03-02T09:11:05;96253.81;;;10.67;57.59
21944;BME280;11136;48.778;9.126;2024-03-02T09:13:32;96178.41;;;10.30;57.25
21944;BME280;11136;48.778;9.126;2024-03-02T09:15:58;95957.50;;;9.17;56.43
21944;BME280;11136;48.778;9.126;2024-03-02T09:18:23;96167.44;;;10.58;55.82
21944;BME280;11136;48.778;9.126;2024-03-02T09:20:48;96341.59;;;11.80;56.36
21944;BME280;11136;48.778;9.126;2024-03-02T09:23:14;96337.81;;;11.84;55.19
21944;BME280;11136;48.778;9.126;2024-03-02T09:25:39;96167.50;;;10.97;55.51
21944;BME280;11136;48.778;9.126;2024-03-02T09:28:05;96092.84;;;10.61;54.57
21944;BME280;11136;48.778;9.126;2024-03-02T09:30:30;96131.06;;;11.03;53.71
21944;BME280;11136;48.778;9.126;2024-03-02T09:32:55;96250.19;;;11.97;53.65
21944;BME280;11136;48.778;9.126;2024-03-02T09:35:21;96266.41;;;12.17;53.40
21944;BME280;11136;48.778;9.126;2024-03-02T09:37:46;96134.84;;;11.18;52.64
21944;BME280;11136;48.778;9.126;2024-03-02T09:40:12;96256.13;;;12.17;52.79
21944;BME280;11136;48.778;9.126;2024-03-02T09:42:38;96154.25;;;11.69;51.57
21944;BME280;11136;48.778;9.126;2024-03-02T09:45:05;96216.75;;;12.26;51.51
21944;BME280;11136;48.778;9.126;2024-03-02T09:47:30;96339.25;;;13.01;51.24
21944;BME280;11136;48.778;9.126;2024-03-02T09:49:56;96197.34;;;12.41;50.96
21944;BME280;11136;48.778;9.126;2024-03-02T09:52:22;96258.09;;;13.07;50.59
21944;BME280;11136;48.778;9.126;2024-03-02T09:54:49;96222.00;;;13.16;51.15
21944;BME280;11136;48.778;9.126;2024-03-02T09:57:15;96128.00;;;12.77;50.36
21944;BME280;11136;48.778;9.126;2024-03-02T09:59:40;96124.91;;;13.18;49.60
21944;BME280;11136;48.778;9.126;2024-03-02T10:02:06;96121.56;;;13.44;48.19
21944;BME280;11136;48.778;9.126;2024-03-02T10:04:32;96233.16;;;14.14;46.98
21944;BME280;11136;48.778;9.126;2024-03-02T10:07:12;96295.69;;;14.60;47.00
21944;BME280;11136;48.778;9.126;2024-03-02T10:09:39;96296.47;;;14.86;48.03
21944;BME280;11136;48.778;9.126;2024-03-02T10:12:06;96296.25;;;15.14;46.02
21944;BME280;11136;48.778;9.126;2024-03-02T10:14:32;96014.28;;;13.27;44.73
21944;BME280;11136;48.778;9.126;2024-03-02T10:17:04;96087.47;;;13.76;44.57
21944;BME280;11136;48.778;9.126;2024-03-02T10:19:30;96184.59;;;14.27;45.21
21944;BME280;11136;48.778;9.126;2024-03-02T10:22:00;96125.88;;;13.87;44.59
21944;BME280;11136;48.778;9.126;2024-03-02T10:24:26;96257.00;;;14.60;45.18
21944;BME280;11136;48.778;9.126;2024-03-02T10:26:52;96291.34;;;14.94;44.79
21944;BME280;11136;48.778;9.126;2024-03-02T10:29:18;96284.63;;;15.10;45.10
21944;BME280;11136;48.778;9.126;2024-03-02T10:31:44;96173.81;;;14.66;45.25
21944;BME280;11136;48.778;9.126;2024-03-02T10:34:12;96279.81;;;15.65;45.14
21944;BME280;11136;48.778;9.126;2024-03-02T10:36:40;96276.41;;;15.81;44.55
21944;BME280;11136;48.778;9.126;2024-03-02T10:39:07;96285.16;;;15.88;43.58
21944;BME280;11136;48.778;9.126;2024-03-02T10:41:38;96088.53;;;14.67;43.76
21944;BME280;11136;48.778;9.126;2024-03-02T10:44:05;96219.84;;;15.53;43.75
21944;BME280;11136;48.778;9.126;2024-03-02T10:46:34;96273.84;;;15.81;43.18
21944;BME280;11136;48.778;9.126;2024-03-02T10:49:01;96156.78;;;14.81;43.35
21944;BME280;11136;48.778;9.126;2024-03-02T10:51:29;96263.66;;;15.71;42.74
21944;BME280;11136;48.778;9.126;2024-03-02T10:53:57;96268.50;;;15.82;43.46
21944;BME280;11136;48.778;9.126;2024-03-02T10:56:31;96252.34;;;16.05;43.00
21944;BME280;11136;48.778;9.126;2024-03-02T11:01:48;96188.16;;;16.24;43.56
21944;BME280;11136;48.778;9.126;2024-03-02T11:04:16;96123.47;;;16.33;43.20
21944;BME280;11136;48.778;9.126;2024-03-02T11:06:49;96247.44;;;17.37;41.97
21944;BME280;11136;48.778;9.126;2024-03-02T11:09:20;96188.25;;;16.95;41.40
21944;BME280;11136;48.778;9.126;2024-03-02T11:11:52;96251.72;;;17.53;40.41
21944;BME280;11136;48.778;9.126;2024-03-02T11:14:21;96171.44;;;17.22;41.29
21944;BME280;11136;48.778;9.126;2024-03-02T11:16:49;95974.50;;;16.15;41.60
21944;BME280;11136;48.778;9.126;2024-03-02T11:19:16;96231.84;;;18.14;41.31
21944;BME280;11136;48.778;9.126;2024-03-02T11:21:45;96226.75;;;18.35;41.02
21944;BME280;11136;48.778;9.126;2024-03-02T11:26:58;96178.34;;;18.42;40.34
21944;BME280;11136;48.778;9.126;2024-03-02T11:34:35;96196.25;;;19.17;39.58
21944;BME280;11136;48.778;9.126;2024-03-02T11:37:03;96199.25;;;19.36;39.04
21944;BME280;11136;48.778;9.126;2024-03-02T11:39:29;96195.53;;;19.45;38.41
21944;BME280;11136;48.778;9.126;2024-03-02T11:41:56;96043.13;;;18.37;37.68
21944;BME280;11136;48.778;9.126;2024-03-02T11:44:21;96119.66;;;18.92;38.22
21944;BME280;11136;48.778;9.126;2024-03-02T11:46:53;96145.16;;;19.24;37.95
21944;BME280;11136;48.778;9.126;2024-03-02T11:49:45;96184.34;;;19.66;37.85
21944;BME280;11136;48.778;9.126;2024-03-02T11:52:12;96178.97;;;19.67;36.96
21944;BME280;11136;48.778;9.126;2024-03-02T11:54:45;95991.13;;;18.30;37.33
21944;BME280;11136;48.778;9.126;2024-03-02T11:57:12;96177.16;;;19.68;37.28
21944;BME280;11136;48.778;9.126;2024-03-02T11:59:39;95987.38;;;18.54;37.11
21944;BME280;11136;48.778;9.126;2024-03-02T12:02:05;96033.69;;;18.87;36.89
21944;BME280;11136;48.778;9.126;2024-03-02T12:04:30;96115.28;;;19.35;36.58
21944;BME280;11136;48.778;9.126;2024-03-02T12:06:57;95847.34;;;17.82;36.07
21944;BME280;11136;48.778;9.126;2024-03-02T12:09:29;95948.94;;;18.43;35.65
21944;BME280;11136;48.778;9.126;2024-03-02T12:12:10;95962.06;;;18.35;34.73
21944;BME280;11136;48.778;9.126;2024-03-02T12:14:38;96115.44;;;19.12;35.08
21944;BME280;11136;48.778;9.126;2024-03-02T12:17:04;95980.19;;;18.14;35.61
21944;BME280;11136;48.778;9.126;2024-03-02T12:19:31;96111.50;;;19.16;36.03
21944;BME280;11136;48.778;9.126;2024-03-02T12:21:57;96062.38;;;19.00;35.39
21944;BME280;11136;48.778;9.126;2024-03-02T12:24:25;96147.75;;;19.67;35.11
21944;BME280;11136;48.778;9.126;2024-03-02T12:26:51;95962.53;;;18.45;34.68
21944;BME280;11136;48.778;9.126;2024-03-02T12:29:21;96155.47;;;19.82;34.88
21944;BME280;11136;48.778;9.126;2024-03-02T12:31:50;96163.28;;;19.82;34.25
21944;BME280;11136;48.778;9.126;2024-03-02T12:34:17;95903.28;;;18.27;34.61
21944;BME280;11136;48.778;9.126;2024-03-02T12:36:42;96135.06;;;19.79;35.09
21944;BME280;11136;48.778;9.126;2024-03-02T12:39:08;95938.97;;;18.83;35.00
21944;BME280;11136;48.778;9.126;2024-03-02T12:41:38;96127.16;;;20.28;34.90
21944;BME280;11136;48.778;9.126;2024-03-02T12:44:04;96029.66;;;19.89;35.03
21944;BME280;11136;48.778;9.126;2024-03-02T12:46:32;95908.22;;;19.21;34.94
21944;BME280;11136;48.778;9.126;2024-03-02T12:48:58;96122.44;;;20.86;34.82
21944;BME280;11136;48.778;9.126;2024-03-02T12:51:31;96114.63;;;20.99;34.73
21944;BME280;11136;48.778;9.126;2024-03-02T12:53:59;95942.81;;;19.91;33.77
21944;BME280;11136;48.778;9.126;2024-03-02T12:56:24;95997.00;;;20.28;34.30
21944;BME280;11136;48.778;9.126;2024-03-02T12:58:57;96041.22;;;20.63;33.35
21944;BME280;11136;48.778;9.126;2024-03-02T13:01:22;96061.84;;;20.71;33.64
21944;BME280;11136;48.778;9.126;2024-03-02T13:03:49;96120.25;;;20.96;33.56
21944;BME280;11136;48.778;9.126;2024-03-02T13:06:16;96134.66;;;20.92;33.10
21944;BME280;11136;48.778;9.126;2024-03-02T13:08:42;96121.81;;;20.84;33.28
21944;BME280;11136;48.778;9.126;2024-03-02T13:11:08;96153.50;;;20.94;33.54
21944;BME280;11136;48.778;9.126;2024-03-02T13:13:33;95947.25;;;19.97;33.44
21944;BME280;11136;48.778;9.126;2024-03-02T13:16:00;96057.44;;;20.71;33.88